LGL7PC ELLX-LEPA
Flight info
| Callsign | LGL7PC |
|---|---|
| Flight time | 1h 48m |
| Altitude | 23000 |
| Route | GTQ A242 POGOL/N0442F350 DCT LASAT/N0446F370 DCT MOROK DCT GILIR DCT GEVEA DCT INCUS DCT BALSI DCT RETNO DCT TUPOX DCT MTG DCT DIVKO DCT VATIR DCT PIVUS DCT BODEQ DCT VERSO L129 LUNIK |
| Aircraft | B738/M-SDE2E3FGHIRWXY/LB1 |
Departure
| Time | 2026-05-05 15:35 |
|---|---|
| Airport | Luxembourg-Findel International Airport (ELLX) |
Arrival
| Time | 2026-05-05 17:24 |
|---|---|
| Airport | Palma de Mallorca Airport (LEPA) |
| Time | Latitude | Longitude | Altitude | Speed | Heading |
|---|---|---|---|---|---|
| 2026-05-05 15:24 | 49.63289 | 6.21701 | 1229 ft | 0 kts | 60° |
| 2026-05-05 15:26 | 49.63299 | 6.21729 | 1229 ft | 4 kts | 60° |
| 2026-05-05 15:27 | 49.63312 | 6.21765 | 1229 ft | 4 kts | 60° |
| 2026-05-05 15:27 | 49.63325 | 6.21800 | 1229 ft | 4 kts | 60° |
| 2026-05-05 15:27 | 49.63338 | 6.21835 | 1229 ft | 4 kts | 60° |
| 2026-05-05 15:27 | 49.63348 | 6.21871 | 1229 ft | 4 kts | 74° |
| 2026-05-05 15:28 | 49.63353 | 6.21909 | 1229 ft | 4 kts | 77° |
| 2026-05-05 15:28 | 49.63358 | 6.21963 | 1229 ft | 7 kts | 95° |
| 2026-05-05 15:28 | 49.63333 | 6.22024 | 1229 ft | 7 kts | 132° |
| 2026-05-05 15:28 | 49.63301 | 6.22075 | 1228 ft | 7 kts | 134° |
| 2026-05-05 15:29 | 49.63266 | 6.22125 | 1227 ft | 7 kts | 141° |
| 2026-05-05 15:29 | 49.63243 | 6.22179 | 1225 ft | 5 kts | 90° |
| 2026-05-05 15:29 | 49.63258 | 6.22231 | 1224 ft | 7 kts | 64° |
| 2026-05-05 15:29 | 49.63285 | 6.22317 | 1222 ft | 10 kts | 64° |
| 2026-05-05 15:30 | 49.63318 | 6.22428 | 1218 ft | 13 kts | 67° |
| 2026-05-05 15:30 | 49.63366 | 6.22562 | 1214 ft | 15 kts | 60° |
| 2026-05-05 15:30 | 49.63415 | 6.22695 | 1214 ft | 14 kts | 60° |
| 2026-05-05 15:30 | 49.63463 | 6.22823 | 1213 ft | 13 kts | 60° |
| 2026-05-05 15:31 | 49.63508 | 6.22945 | 1213 ft | 13 kts | 60° |
| 2026-05-05 15:31 | 49.63552 | 6.23063 | 1212 ft | 13 kts | 60° |
| 2026-05-05 15:31 | 49.63595 | 6.23179 | 1212 ft | 12 kts | 60° |
| 2026-05-05 15:31 | 49.63637 | 6.23291 | 1212 ft | 12 kts | 60° |
| 2026-05-05 15:32 | 49.63669 | 6.23404 | 1210 ft | 11 kts | 95° |
| 2026-05-05 15:32 | 49.63644 | 6.23449 | 1211 ft | 0 kts | 149° |
| 2026-05-05 15:33 | 49.63640 | 6.23452 | 1211 ft | 2 kts | 149° |
| 2026-05-05 15:33 | 49.63625 | 6.23466 | 1212 ft | 5 kts | 149° |
| 2026-05-05 15:34 | 49.63589 | 6.23499 | 1213 ft | 6 kts | 149° |
| 2026-05-05 15:34 | 49.63550 | 6.23522 | 1214 ft | 6 kts | 176° |
| 2026-05-05 15:34 | 49.63515 | 6.23492 | 1215 ft | 6 kts | 229° |
| 2026-05-05 15:34 | 49.63486 | 6.23418 | 1214 ft | 11 kts | 240° |
| 2026-05-05 15:35 | 49.63325 | 6.22988 | 1207 ft | 88 kts | 240° |
| 2026-05-05 15:35 | 49.62892 | 6.21825 | 1216 ft | 160 kts | 241° |
| 2026-05-05 15:35 | 49.62280 | 6.20178 | 1818 ft | 187 kts | 238° |
| 2026-05-05 15:35 | 49.61618 | 6.18402 | 2780 ft | 199 kts | 239° |
| 2026-05-05 15:36 | 49.60914 | 6.16507 | 3599 ft | 209 kts | 239° |
| 2026-05-05 15:36 | 49.60157 | 6.14492 | 4061 ft | 227 kts | 239° |
| 2026-05-05 15:36 | 49.59335 | 6.12320 | 4544 ft | 242 kts | 235° |
| 2026-05-05 15:36 | 49.58009 | 6.10544 | 4831 ft | 264 kts | 200° |
| 2026-05-05 15:37 | 49.56203 | 6.10240 | 5697 ft | 265 kts | 171° |
| 2026-05-05 15:37 | 49.54402 | 6.10940 | 6582 ft | 266 kts | 163° |
| 2026-05-05 15:37 | 49.52629 | 6.11869 | 7422 ft | 272 kts | 162° |
| 2026-05-05 15:37 | 49.50837 | 6.12832 | 8338 ft | 272 kts | 162° |
| 2026-05-05 15:38 | 49.49041 | 6.13801 | 9188 ft | 275 kts | 162° |
| 2026-05-05 15:38 | 49.47235 | 6.14769 | 9961 ft | 280 kts | 162° |
| 2026-05-05 15:38 | 49.45342 | 6.15775 | 10322 ft | 300 kts | 162° |
| 2026-05-05 15:38 | 49.43285 | 6.16857 | 10510 ft | 324 kts | 162° |
| 2026-05-05 15:39 | 49.41091 | 6.18005 | 10909 ft | 338 kts | 162° |
| 2026-05-05 15:39 | 49.38846 | 6.19177 | 11605 ft | 343 kts | 163° |
| 2026-05-05 15:39 | 49.36577 | 6.20357 | 12389 ft | 345 kts | 163° |
| 2026-05-05 15:39 | 49.34296 | 6.21540 | 13165 ft | 348 kts | 163° |
| 2026-05-05 15:40 | 49.31985 | 6.22736 | 13872 ft | 352 kts | 163° |
| 2026-05-05 15:40 | 49.29649 | 6.23941 | 14485 ft | 357 kts | 163° |
| 2026-05-05 15:40 | 49.27278 | 6.25162 | 15120 ft | 360 kts | 163° |
| 2026-05-05 15:40 | 49.24893 | 6.26389 | 15825 ft | 362 kts | 162° |
| 2026-05-05 15:41 | 49.22492 | 6.27623 | 16502 ft | 365 kts | 162° |
| 2026-05-05 15:41 | 49.20099 | 6.28852 | 17144 ft | 369 kts | 162° |
| 2026-05-05 15:41 | 49.17633 | 6.30008 | 17773 ft | 372 kts | 168° |
| 2026-05-05 15:41 | 49.15050 | 6.30425 | 18363 ft | 375 kts | 180° |
| 2026-05-05 15:42 | 49.12440 | 6.30330 | 18962 ft | 376 kts | 181° |
| 2026-05-05 15:42 | 49.09820 | 6.30213 | 19589 ft | 377 kts | 181° |
| 2026-05-05 15:42 | 49.07185 | 6.30097 | 20133 ft | 380 kts | 181° |
| 2026-05-05 15:42 | 49.04530 | 6.29989 | 20652 ft | 384 kts | 181° |
| 2026-05-05 15:43 | 49.01847 | 6.29888 | 21193 ft | 387 kts | 181° |
| 2026-05-05 15:43 | 48.99144 | 6.29792 | 21769 ft | 390 kts | 181° |
| 2026-05-05 15:43 | 48.96418 | 6.29701 | 22345 ft | 393 kts | 180° |
| 2026-05-05 15:43 | 48.93676 | 6.29612 | 22917 ft | 395 kts | 180° |
| 2026-05-05 15:44 | 48.90909 | 6.29524 | 23433 ft | 399 kts | 180° |
| 2026-05-05 15:44 | 48.88148 | 6.29436 | 23778 ft | 404 kts | 180° |
| 2026-05-05 15:44 | 48.85327 | 6.29347 | 24179 ft | 407 kts | 180° |
| 2026-05-05 15:44 | 48.82489 | 6.29258 | 24615 ft | 408 kts | 180° |
| 2026-05-05 15:45 | 48.79641 | 6.29168 | 25026 ft | 410 kts | 180° |
| 2026-05-05 15:45 | 48.76771 | 6.29078 | 25411 ft | 413 kts | 180° |
| 2026-05-05 15:45 | 48.73888 | 6.28988 | 25790 ft | 415 kts | 180° |
| 2026-05-05 15:45 | 48.70992 | 6.28897 | 26173 ft | 417 kts | 180° |
| 2026-05-05 15:46 | 48.68078 | 6.28806 | 26552 ft | 420 kts | 180° |
| 2026-05-05 15:46 | 48.65151 | 6.28715 | 26919 ft | 422 kts | 180° |
| 2026-05-05 15:46 | 48.62203 | 6.28623 | 27276 ft | 424 kts | 180° |
| 2026-05-05 15:46 | 48.59247 | 6.28530 | 27616 ft | 426 kts | 180° |
| 2026-05-05 15:47 | 48.56309 | 6.28439 | 27955 ft | 428 kts | 180° |
| 2026-05-05 15:47 | 48.54289 | 6.28376 | 28190 ft | 430 kts | 180° |
| 2026-05-05 15:47 | 48.50315 | 6.28253 | 28656 ft | 433 kts | 180° |
| 2026-05-05 15:47 | 48.47284 | 6.28159 | 29019 ft | 435 kts | 180° |
| 2026-05-05 15:48 | 48.44260 | 6.28064 | 29419 ft | 435 kts | 180° |
| 2026-05-05 15:48 | 48.41222 | 6.27970 | 29820 ft | 436 kts | 180° |
| 2026-05-05 15:48 | 48.38191 | 6.27876 | 30212 ft | 434 kts | 180° |
| 2026-05-05 15:48 | 48.35172 | 6.27783 | 30614 ft | 433 kts | 180° |
| 2026-05-05 15:49 | 48.32202 | 6.27690 | 30961 ft | 432 kts | 180° |
| 2026-05-05 15:49 | 48.29189 | 6.27598 | 31282 ft | 432 kts | 180° |
| 2026-05-05 15:49 | 48.26180 | 6.27505 | 31635 ft | 431 kts | 180° |
| 2026-05-05 15:49 | 48.23186 | 6.27413 | 32010 ft | 429 kts | 180° |
| 2026-05-05 15:50 | 48.20202 | 6.27321 | 32375 ft | 428 kts | 180° |
| 2026-05-05 15:50 | 48.17224 | 6.27229 | 32743 ft | 428 kts | 180° |
| 2026-05-05 15:50 | 48.14244 | 6.27138 | 33127 ft | 427 kts | 181° |
| 2026-05-05 15:50 | 48.11307 | 6.27048 | 33509 ft | 426 kts | 181° |
| 2026-05-05 15:51 | 48.08347 | 6.26958 | 33847 ft | 425 kts | 181° |
| 2026-05-05 15:51 | 48.05383 | 6.26868 | 34097 ft | 425 kts | 181° |
| 2026-05-05 15:51 | 48.02418 | 6.26777 | 34240 ft | 428 kts | 181° |
| 2026-05-05 15:51 | 47.99437 | 6.26687 | 34404 ft | 429 kts | 181° |
| 2026-05-05 15:52 | 47.96453 | 6.26596 | 34698 ft | 428 kts | 181° |
| 2026-05-05 15:52 | 47.93476 | 6.26505 | 35003 ft | 426 kts | 181° |
| 2026-05-05 15:52 | 47.90514 | 6.26415 | 35257 ft | 426 kts | 181° |
| 2026-05-05 15:52 | 47.87543 | 6.26325 | 35514 ft | 427 kts | 182° |
| 2026-05-05 15:53 | 47.84573 | 6.26235 | 35812 ft | 426 kts | 182° |
| 2026-05-05 15:53 | 47.81650 | 6.26147 | 36069 ft | 426 kts | 182° |
| 2026-05-05 15:53 | 47.78676 | 6.26057 | 36314 ft | 427 kts | 182° |
| 2026-05-05 15:53 | 47.75705 | 6.25967 | 36586 ft | 426 kts | 182° |
| 2026-05-05 15:54 | 47.72745 | 6.25878 | 36850 ft | 425 kts | 182° |
| 2026-05-05 15:54 | 47.69783 | 6.25789 | 37081 ft | 424 kts | 182° |
| 2026-05-05 15:54 | 47.66833 | 6.25700 | 37285 ft | 424 kts | 182° |
| 2026-05-05 15:55 | 47.65472 | 6.25659 | 37368 ft | 424 kts | 182° |
| 2026-05-05 15:56 | 47.65155 | 6.25649 | 36722 ft | 424 kts | 182° |
| 2026-05-05 15:56 | 47.61250 | 6.25533 | 37636 ft | 422 kts | 183° |
| 2026-05-05 15:56 | 47.59270 | 6.25474 | 37860 ft | 420 kts | 183° |
| 2026-05-05 15:57 | 47.53400 | 6.25297 | 37860 ft | 425 kts | 183° |
| 2026-05-05 15:57 | 47.47469 | 6.25120 | 37862 ft | 424 kts | 183° |
| 2026-05-05 15:58 | 47.41601 | 6.24945 | 37837 ft | 422 kts | 183° |
| 2026-05-05 15:58 | 47.35733 | 6.24771 | 37857 ft | 420 kts | 183° |
| 2026-05-05 15:59 | 47.29892 | 6.24597 | 37862 ft | 419 kts | 183° |
| 2026-05-05 15:59 | 47.24062 | 6.24424 | 37867 ft | 419 kts | 183° |
| 2026-05-05 16:00 | 47.18237 | 6.24252 | 37875 ft | 418 kts | 183° |
| 2026-05-05 16:00 | 47.12396 | 6.24079 | 37866 ft | 420 kts | 183° |
| 2026-05-05 16:01 | 47.06575 | 6.23904 | 37873 ft | 420 kts | 184° |
| 2026-05-05 16:01 | 47.00746 | 6.23262 | 37878 ft | 420 kts | 187° |
| 2026-05-05 16:02 | 46.94909 | 6.22425 | 37910 ft | 421 kts | 188° |
| 2026-05-05 16:02 | 46.89075 | 6.21605 | 37895 ft | 426 kts | 187° |
| 2026-05-05 16:03 | 46.83147 | 6.20804 | 37887 ft | 429 kts | 187° |
| 2026-05-05 16:03 | 46.77198 | 6.20013 | 37887 ft | 428 kts | 187° |
| 2026-05-05 16:04 | 46.71260 | 6.19228 | 37886 ft | 427 kts | 187° |
| 2026-05-05 16:04 | 46.65346 | 6.18446 | 37890 ft | 425 kts | 187° |
| 2026-05-05 16:05 | 46.59486 | 6.17671 | 37889 ft | 424 kts | 187° |
| 2026-05-05 16:05 | 46.53600 | 6.16895 | 37894 ft | 422 kts | 187° |
| 2026-05-05 16:06 | 46.47780 | 6.16130 | 37894 ft | 421 kts | 187° |
| 2026-05-05 16:06 | 46.41939 | 6.15363 | 37900 ft | 421 kts | 187° |
| 2026-05-05 16:07 | 46.36107 | 6.14599 | 37884 ft | 420 kts | 188° |
| 2026-05-05 16:07 | 46.30282 | 6.13837 | 37887 ft | 420 kts | 188° |
| 2026-05-05 16:08 | 46.24501 | 6.13050 | 37882 ft | 419 kts | 189° |
| 2026-05-05 16:08 | 46.18737 | 6.11826 | 37891 ft | 419 kts | 192° |
| 2026-05-05 16:09 | 46.12980 | 6.10481 | 37885 ft | 419 kts | 192° |
| 2026-05-05 16:09 | 46.07217 | 6.09177 | 37891 ft | 419 kts | 192° |
| 2026-05-05 16:10 | 46.01438 | 6.07899 | 37887 ft | 420 kts | 191° |
| 2026-05-05 16:10 | 45.95691 | 6.06637 | 37878 ft | 420 kts | 192° |
| 2026-05-05 16:11 | 45.89928 | 6.05371 | 37887 ft | 418 kts | 192° |
| 2026-05-05 16:12 | 45.78452 | 6.02849 | 37874 ft | 416 kts | 192° |
| 2026-05-05 16:13 | 45.64223 | 5.99717 | 37885 ft | 412 kts | 192° |
| 2026-05-05 16:13 | 45.58593 | 5.98482 | 37900 ft | 413 kts | 192° |
| 2026-05-05 16:14 | 45.47174 | 5.95963 | 37876 ft | 414 kts | 194° |
| 2026-05-05 16:15 | 45.35998 | 5.92491 | 37869 ft | 409 kts | 196° |
| 2026-05-05 16:16 | 45.24947 | 5.89007 | 37885 ft | 407 kts | 196° |
| 2026-05-05 16:17 | 45.16658 | 5.86433 | 37879 ft | 406 kts | 196° |
| 2026-05-05 16:18 | 45.08360 | 5.83867 | 37884 ft | 407 kts | 196° |
| 2026-05-05 16:19 | 45.00097 | 5.81395 | 37951 ft | 403 kts | 195° |
| 2026-05-05 16:19 | 44.91848 | 5.78831 | 37896 ft | 405 kts | 197° |
| 2026-05-05 16:20 | 44.80838 | 5.75407 | 37888 ft | 405 kts | 197° |
| 2026-05-05 16:22 | 44.67077 | 5.71208 | 37905 ft | 404 kts | 196° |
| 2026-05-05 16:23 | 44.56115 | 5.67877 | 37908 ft | 405 kts | 196° |
| 2026-05-05 16:23 | 44.47843 | 5.65372 | 37901 ft | 405 kts | 196° |
| 2026-05-05 16:24 | 44.42325 | 5.63705 | 37889 ft | 405 kts | 196° |
| 2026-05-05 16:25 | 44.34296 | 5.60447 | 37907 ft | 400 kts | 205° |
| 2026-05-05 16:25 | 44.26529 | 5.56109 | 37885 ft | 401 kts | 205° |
| 2026-05-05 16:26 | 44.16149 | 5.50410 | 37895 ft | 401 kts | 205° |
| 2026-05-05 16:27 | 44.10951 | 5.47571 | 37898 ft | 401 kts | 205° |
| 2026-05-05 16:27 | 44.05742 | 5.44731 | 37887 ft | 401 kts | 205° |
| 2026-05-05 16:28 | 44.00567 | 5.41914 | 37895 ft | 401 kts | 205° |
| 2026-05-05 16:28 | 43.95360 | 5.39089 | 37907 ft | 402 kts | 205° |
| 2026-05-05 16:29 | 43.90146 | 5.36274 | 37871 ft | 402 kts | 205° |
| 2026-05-05 16:29 | 43.84931 | 5.33463 | 37893 ft | 402 kts | 205° |
| 2026-05-05 16:30 | 43.79716 | 5.30656 | 37901 ft | 402 kts | 205° |
| 2026-05-05 16:30 | 43.74490 | 5.27848 | 37906 ft | 402 kts | 205° |
| 2026-05-05 16:31 | 43.69268 | 5.25048 | 37903 ft | 402 kts | 205° |
| 2026-05-05 16:31 | 43.64084 | 5.22272 | 37909 ft | 402 kts | 205° |
| 2026-05-05 16:32 | 43.58865 | 5.19483 | 37930 ft | 402 kts | 205° |
| 2026-05-05 16:32 | 43.53642 | 5.16697 | 37943 ft | 402 kts | 205° |
| 2026-05-05 16:33 | 43.48420 | 5.13917 | 37940 ft | 401 kts | 205° |
| 2026-05-05 16:33 | 43.43221 | 5.11153 | 37936 ft | 401 kts | 205° |
| 2026-05-05 16:34 | 43.38122 | 5.08210 | 37926 ft | 396 kts | 212° |
| 2026-05-05 16:34 | 43.33571 | 5.04010 | 37936 ft | 393 kts | 218° |
| 2026-05-05 16:35 | 43.29067 | 4.99721 | 37923 ft | 393 kts | 217° |
| 2026-05-05 16:35 | 43.24558 | 4.95466 | 37913 ft | 392 kts | 217° |
| 2026-05-05 16:36 | 43.20045 | 4.91224 | 37926 ft | 393 kts | 217° |
| 2026-05-05 16:36 | 43.15552 | 4.87011 | 37904 ft | 393 kts | 217° |
| 2026-05-05 16:37 | 43.11031 | 4.82777 | 37893 ft | 393 kts | 217° |
| 2026-05-05 16:37 | 43.06513 | 4.78555 | 37899 ft | 393 kts | 217° |
| 2026-05-05 16:38 | 43.01795 | 4.74733 | 37909 ft | 395 kts | 212° |
| 2026-05-05 16:38 | 42.96742 | 4.71671 | 37903 ft | 398 kts | 206° |
| 2026-05-05 16:39 | 42.91581 | 4.68930 | 37913 ft | 398 kts | 206° |
| 2026-05-05 16:39 | 42.86420 | 4.66178 | 37895 ft | 398 kts | 206° |
| 2026-05-05 16:40 | 42.81283 | 4.63406 | 37895 ft | 397 kts | 206° |
| 2026-05-05 16:40 | 42.76195 | 4.60649 | 37896 ft | 396 kts | 206° |
| 2026-05-05 16:41 | 42.71075 | 4.57873 | 37894 ft | 395 kts | 206° |
| 2026-05-05 16:41 | 42.65968 | 4.55109 | 37902 ft | 395 kts | 206° |
| 2026-05-05 16:42 | 42.60847 | 4.52342 | 37897 ft | 395 kts | 206° |
| 2026-05-05 16:42 | 42.55764 | 4.49601 | 37895 ft | 396 kts | 206° |
| 2026-05-05 16:43 | 42.50631 | 4.46838 | 37888 ft | 396 kts | 206° |
| 2026-05-05 16:43 | 42.45508 | 4.44086 | 37885 ft | 396 kts | 206° |
| 2026-05-05 16:44 | 42.40414 | 4.41353 | 37890 ft | 396 kts | 206° |
| 2026-05-05 16:44 | 42.35288 | 4.38609 | 37888 ft | 396 kts | 206° |
| 2026-05-05 16:45 | 42.31025 | 4.36330 | 37867 ft | 395 kts | 206° |
| 2026-05-05 16:45 | 42.25906 | 4.33598 | 37885 ft | 395 kts | 206° |
| 2026-05-05 16:46 | 42.20797 | 4.30877 | 37896 ft | 394 kts | 206° |
| 2026-05-05 16:46 | 42.15727 | 4.28181 | 37884 ft | 393 kts | 206° |
| 2026-05-05 16:47 | 42.10632 | 4.25475 | 37864 ft | 392 kts | 207° |
| 2026-05-05 16:47 | 42.05557 | 4.22786 | 37875 ft | 391 kts | 207° |
| 2026-05-05 16:48 | 42.00495 | 4.20108 | 37883 ft | 391 kts | 207° |
| 2026-05-05 16:48 | 41.95430 | 4.17431 | 37896 ft | 391 kts | 206° |
| 2026-05-05 16:49 | 41.90361 | 4.14758 | 37862 ft | 392 kts | 207° |
| 2026-05-05 16:49 | 41.85317 | 4.12103 | 37877 ft | 392 kts | 207° |
| 2026-05-05 16:50 | 41.80233 | 4.09431 | 37884 ft | 392 kts | 207° |
| 2026-05-05 16:50 | 41.75153 | 4.06766 | 37883 ft | 392 kts | 207° |
| 2026-05-05 16:51 | 41.70065 | 4.04093 | 37769 ft | 394 kts | 207° |
| 2026-05-05 16:51 | 41.67491 | 4.02739 | 37390 ft | 396 kts | 207° |
| 2026-05-05 16:51 | 41.64943 | 4.01404 | 36954 ft | 391 kts | 207° |
| 2026-05-05 16:52 | 41.62430 | 4.00090 | 36610 ft | 385 kts | 207° |
| 2026-05-05 16:52 | 41.59946 | 3.98792 | 36233 ft | 379 kts | 207° |
| 2026-05-05 16:52 | 41.57538 | 3.97533 | 35849 ft | 375 kts | 206° |
| 2026-05-05 16:52 | 41.55124 | 3.96271 | 35483 ft | 370 kts | 206° |
| 2026-05-05 16:53 | 41.52741 | 3.95026 | 35103 ft | 366 kts | 206° |
| 2026-05-05 16:53 | 41.50386 | 3.93796 | 34744 ft | 361 kts | 206° |
| 2026-05-05 16:53 | 41.48062 | 3.92583 | 34347 ft | 356 kts | 206° |
| 2026-05-05 16:53 | 41.45761 | 3.91383 | 34014 ft | 352 kts | 206° |
| 2026-05-05 16:54 | 41.43489 | 3.90199 | 33625 ft | 348 kts | 206° |
| 2026-05-05 16:54 | 41.41250 | 3.89033 | 33263 ft | 343 kts | 207° |
| 2026-05-05 16:54 | 41.39040 | 3.87884 | 32903 ft | 338 kts | 207° |
| 2026-05-05 16:54 | 41.36862 | 3.86752 | 32556 ft | 334 kts | 207° |
| 2026-05-05 16:55 | 41.34729 | 3.85644 | 32213 ft | 330 kts | 207° |
| 2026-05-05 16:55 | 41.32601 | 3.84538 | 31866 ft | 326 kts | 207° |
| 2026-05-05 16:55 | 41.30498 | 3.83447 | 31517 ft | 323 kts | 207° |
| 2026-05-05 16:55 | 41.28416 | 3.82368 | 31168 ft | 319 kts | 207° |
| 2026-05-05 16:56 | 41.26356 | 3.81300 | 30872 ft | 315 kts | 207° |
| 2026-05-05 16:56 | 41.24323 | 3.80247 | 30564 ft | 313 kts | 208° |
| 2026-05-05 16:56 | 41.22327 | 3.79214 | 30234 ft | 310 kts | 208° |
| 2026-05-05 16:56 | 41.20323 | 3.78177 | 29897 ft | 307 kts | 208° |
| 2026-05-05 16:57 | 41.18337 | 3.77151 | 29531 ft | 304 kts | 208° |
| 2026-05-05 16:57 | 41.16378 | 3.76140 | 29206 ft | 300 kts | 208° |
| 2026-05-05 16:57 | 41.14444 | 3.75143 | 28880 ft | 295 kts | 208° |
| 2026-05-05 16:57 | 41.12537 | 3.74159 | 28550 ft | 292 kts | 208° |
| 2026-05-05 16:58 | 41.10652 | 3.73188 | 28223 ft | 288 kts | 208° |
| 2026-05-05 16:58 | 41.08790 | 3.72228 | 27916 ft | 286 kts | 208° |
| 2026-05-05 16:58 | 41.06963 | 3.71287 | 27557 ft | 284 kts | 208° |
| 2026-05-05 16:58 | 41.05122 | 3.70339 | 27274 ft | 284 kts | 208° |
| 2026-05-05 16:59 | 41.03252 | 3.69371 | 26961 ft | 295 kts | 208° |
| 2026-05-05 16:59 | 41.01291 | 3.68353 | 26627 ft | 308 kts | 208° |
| 2026-05-05 16:59 | 40.99288 | 3.67322 | 26263 ft | 308 kts | 208° |
| 2026-05-05 16:59 | 40.97299 | 3.66305 | 25908 ft | 305 kts | 208° |
| 2026-05-05 17:00 | 40.95328 | 3.65298 | 25575 ft | 302 kts | 208° |
| 2026-05-05 17:00 | 40.93396 | 3.64312 | 25247 ft | 300 kts | 208° |
| 2026-05-05 17:00 | 40.91457 | 3.63321 | 24920 ft | 298 kts | 208° |
| 2026-05-05 17:00 | 40.89534 | 3.62337 | 24590 ft | 296 kts | 208° |
| 2026-05-05 17:01 | 40.87623 | 3.61361 | 24265 ft | 294 kts | 208° |
| 2026-05-05 17:01 | 40.85720 | 3.60388 | 23940 ft | 292 kts | 208° |
| 2026-05-05 17:01 | 40.83828 | 3.59421 | 23596 ft | 291 kts | 208° |
| 2026-05-05 17:01 | 40.81945 | 3.58459 | 23246 ft | 290 kts | 208° |
| 2026-05-05 17:02 | 40.80070 | 3.57502 | 22883 ft | 288 kts | 208° |
| 2026-05-05 17:02 | 40.78203 | 3.56550 | 22540 ft | 286 kts | 208° |
| 2026-05-05 17:02 | 40.76376 | 3.55619 | 22228 ft | 283 kts | 208° |
| 2026-05-05 17:02 | 40.74544 | 3.54686 | 21912 ft | 281 kts | 208° |
| 2026-05-05 17:03 | 40.72723 | 3.53759 | 21596 ft | 279 kts | 208° |
| 2026-05-05 17:03 | 40.70917 | 3.52840 | 21283 ft | 277 kts | 207° |
| 2026-05-05 17:03 | 40.69120 | 3.51926 | 20975 ft | 276 kts | 207° |
| 2026-05-05 17:03 | 40.67329 | 3.51014 | 20669 ft | 276 kts | 207° |
| 2026-05-05 17:04 | 40.65525 | 3.50096 | 20360 ft | 278 kts | 207° |
| 2026-05-05 17:04 | 40.63700 | 3.49167 | 20062 ft | 286 kts | 207° |
| 2026-05-05 17:04 | 40.61818 | 3.48208 | 19736 ft | 293 kts | 206° |
| 2026-05-05 17:04 | 40.59935 | 3.47253 | 19401 ft | 293 kts | 206° |
| 2026-05-05 17:05 | 40.58031 | 3.46291 | 19069 ft | 292 kts | 206° |
| 2026-05-05 17:05 | 40.56139 | 3.45334 | 18743 ft | 291 kts | 206° |
| 2026-05-05 17:05 | 40.54250 | 3.44379 | 18420 ft | 289 kts | 206° |
| 2026-05-05 17:05 | 40.52370 | 3.43428 | 18080 ft | 288 kts | 206° |
| 2026-05-05 17:06 | 40.50501 | 3.42483 | 17722 ft | 287 kts | 205° |
| 2026-05-05 17:06 | 40.48630 | 3.41567 | 17378 ft | 287 kts | 201° |
| 2026-05-05 17:06 | 40.46691 | 3.40911 | 17044 ft | 287 kts | 198° |
| 2026-05-05 17:06 | 40.44792 | 3.40237 | 16676 ft | 285 kts | 201° |
| 2026-05-05 17:07 | 40.42900 | 3.39468 | 16323 ft | 284 kts | 202° |
| 2026-05-05 17:07 | 40.41018 | 3.38683 | 15959 ft | 283 kts | 202° |
| 2026-05-05 17:07 | 40.39145 | 3.37895 | 15617 ft | 282 kts | 202° |
| 2026-05-05 17:07 | 40.37282 | 3.37103 | 15309 ft | 281 kts | 202° |
| 2026-05-05 17:08 | 40.35430 | 3.36309 | 14996 ft | 279 kts | 202° |
| 2026-05-05 17:08 | 40.33586 | 3.35512 | 14682 ft | 278 kts | 202° |
| 2026-05-05 17:08 | 40.31752 | 3.34711 | 14372 ft | 277 kts | 202° |
| 2026-05-05 17:08 | 40.29930 | 3.33908 | 14064 ft | 276 kts | 202° |
| 2026-05-05 17:09 | 40.28114 | 3.33098 | 13762 ft | 275 kts | 202° |
| 2026-05-05 17:09 | 40.26304 | 3.32282 | 13421 ft | 274 kts | 202° |
| 2026-05-05 17:09 | 40.24505 | 3.31465 | 13075 ft | 273 kts | 202° |
| 2026-05-05 17:09 | 40.22736 | 3.30659 | 12732 ft | 272 kts | 202° |
| 2026-05-05 17:10 | 40.20947 | 3.29841 | 12403 ft | 272 kts | 202° |
| 2026-05-05 17:10 | 40.19159 | 3.29023 | 12043 ft | 272 kts | 202° |
| 2026-05-05 17:10 | 40.17370 | 3.28206 | 11713 ft | 271 kts | 202° |
| 2026-05-05 17:10 | 40.15587 | 3.27387 | 11388 ft | 271 kts | 202° |
| 2026-05-05 17:11 | 40.13808 | 3.26568 | 11061 ft | 270 kts | 202° |
| 2026-05-05 17:11 | 40.12055 | 3.25757 | 10753 ft | 270 kts | 202° |
| 2026-05-05 17:11 | 40.10287 | 3.24935 | 10443 ft | 269 kts | 202° |
| 2026-05-05 17:11 | 40.08529 | 3.24113 | 10208 ft | 266 kts | 202° |
| 2026-05-05 17:12 | 40.06807 | 3.23307 | 10032 ft | 261 kts | 202° |
| 2026-05-05 17:12 | 40.05105 | 3.22511 | 9774 ft | 259 kts | 202° |
| 2026-05-05 17:12 | 40.03405 | 3.21715 | 9442 ft | 259 kts | 202° |
| 2026-05-05 17:12 | 40.01704 | 3.20918 | 9138 ft | 259 kts | 202° |
| 2026-05-05 17:13 | 40.00014 | 3.20130 | 8851 ft | 258 kts | 202° |
| 2026-05-05 17:13 | 39.98325 | 3.19345 | 8558 ft | 257 kts | 202° |
| 2026-05-05 17:13 | 39.96647 | 3.18570 | 8304 ft | 255 kts | 202° |
| 2026-05-05 17:13 | 39.94977 | 3.17803 | 8012 ft | 254 kts | 202° |
| 2026-05-05 17:14 | 39.93312 | 3.17036 | 7757 ft | 253 kts | 202° |
| 2026-05-05 17:14 | 39.91646 | 3.16269 | 7433 ft | 254 kts | 202° |
| 2026-05-05 17:14 | 39.89969 | 3.15499 | 7081 ft | 256 kts | 202° |
| 2026-05-05 17:14 | 39.88316 | 3.14740 | 6798 ft | 252 kts | 202° |
| 2026-05-05 17:15 | 39.86687 | 3.13996 | 6537 ft | 244 kts | 202° |
| 2026-05-05 17:15 | 39.85108 | 3.13276 | 6289 ft | 236 kts | 202° |
| 2026-05-05 17:15 | 39.83577 | 3.12584 | 6021 ft | 230 kts | 202° |
| 2026-05-05 17:15 | 39.82087 | 3.11915 | 5757 ft | 224 kts | 202° |
| 2026-05-05 17:16 | 39.80614 | 3.11257 | 5513 ft | 224 kts | 202° |
| 2026-05-05 17:16 | 39.79138 | 3.10602 | 5266 ft | 223 kts | 202° |
| 2026-05-05 17:16 | 39.77669 | 3.09952 | 5040 ft | 221 kts | 202° |
| 2026-05-05 17:16 | 39.76219 | 3.09318 | 4938 ft | 221 kts | 202° |
| 2026-05-05 17:17 | 39.74737 | 3.08678 | 4672 ft | 226 kts | 202° |
| 2026-05-05 17:17 | 39.73330 | 3.07840 | 4392 ft | 220 kts | 225° |
| 2026-05-05 17:17 | 39.72304 | 3.06406 | 4173 ft | 216 kts | 231° |
| 2026-05-05 17:17 | 39.71290 | 3.04958 | 3915 ft | 216 kts | 231° |
| 2026-05-05 17:18 | 39.70287 | 3.03541 | 3671 ft | 216 kts | 230° |
| 2026-05-05 17:18 | 39.69265 | 3.02100 | 3422 ft | 217 kts | 230° |
| 2026-05-05 17:18 | 39.68244 | 3.00662 | 3196 ft | 216 kts | 229° |
| 2026-05-05 17:18 | 39.67241 | 2.99253 | 3103 ft | 209 kts | 229° |
| 2026-05-05 17:19 | 39.66268 | 2.97885 | 2963 ft | 203 kts | 230° |
| 2026-05-05 17:19 | 39.65318 | 2.96550 | 2814 ft | 198 kts | 230° |
| 2026-05-05 17:19 | 39.64508 | 2.95160 | 2702 ft | 188 kts | 239° |
| 2026-05-05 17:19 | 39.63835 | 2.93751 | 2560 ft | 181 kts | 240° |
| 2026-05-05 17:20 | 39.63191 | 2.92379 | 2397 ft | 179 kts | 240° |
| 2026-05-05 17:20 | 39.62555 | 2.91029 | 2256 ft | 174 kts | 239° |
| 2026-05-05 17:20 | 39.61935 | 2.89717 | 2135 ft | 166 kts | 239° |
| 2026-05-05 17:20 | 39.61344 | 2.88468 | 2027 ft | 156 kts | 239° |
| 2026-05-05 17:21 | 39.60783 | 2.87281 | 1953 ft | 157 kts | 240° |
| 2026-05-05 17:21 | 39.60213 | 2.86072 | 1768 ft | 159 kts | 239° |
| 2026-05-05 17:21 | 39.59647 | 2.84876 | 1580 ft | 152 kts | 239° |
| 2026-05-05 17:22 | 39.58536 | 2.82521 | 1183 ft | 159 kts | 238° |
| 2026-05-05 17:22 | 39.57939 | 2.81259 | 958 ft | 170 kts | 238° |
| 2026-05-05 17:22 | 39.57331 | 2.79971 | 716 ft | 164 kts | 238° |
| 2026-05-05 17:22 | 39.56756 | 2.78748 | 524 ft | 155 kts | 237° |
| 2026-05-05 17:23 | 39.56202 | 2.77578 | 325 ft | 149 kts | 237° |
| 2026-05-05 17:23 | 39.55672 | 2.76439 | 132 ft | 148 kts | 238° |
| 2026-05-05 17:23 | 39.55158 | 2.75360 | 30 ft | 134 kts | 238° |
| 2026-05-05 17:23 | 39.54748 | 2.74487 | 29 ft | 92 kts | 238° |
| 2026-05-05 17:24 | 39.54490 | 2.73941 | 29 ft | 50 kts | 239° |
| 2026-05-05 17:24 | 39.54484 | 2.73727 | 29 ft | 20 kts | 329° |
| 2026-05-05 17:24 | 39.54541 | 2.73683 | 29 ft | 6 kts | 328° |
| 2026-05-05 17:24 | 39.54560 | 2.73668 | 29 ft | 2 kts | 328° |
| 2026-05-05 17:25 | 39.54574 | 2.73658 | 29 ft | 2 kts | 342° |
| 2026-05-05 17:25 | 39.54581 | 2.73655 | 29 ft | 1 kts | 337° |
| 2026-05-05 17:25 | 39.54586 | 2.73650 | 29 ft | 1 kts | 326° |
| 2026-05-05 17:25 | 39.54593 | 2.73644 | 29 ft | 2 kts | 325° |
| 2026-05-05 17:26 | 39.54616 | 2.73627 | 29 ft | 4 kts | 339° |
| 2026-05-05 17:26 | 39.54645 | 2.73619 | 29 ft | 4 kts | 354° |
| 2026-05-05 17:26 | 39.54670 | 2.73608 | 29 ft | 4 kts | 335° |
| 2026-05-05 17:26 | 39.54694 | 2.73592 | 29 ft | 4 kts | 330° |
| 2026-05-05 17:27 | 39.54716 | 2.73578 | 29 ft | 3 kts | 353° |
| 2026-05-05 17:27 | 39.54732 | 2.73590 | 29 ft | 3 kts | 45° |
| 2026-05-05 17:27 | 39.54742 | 2.73610 | 29 ft | 3 kts | 57° |
| 2026-05-05 17:27 | 39.54752 | 2.73629 | 29 ft | 2 kts | 57° |
| 2026-05-05 17:28 | 39.54757 | 2.73640 | 29 ft | 0 kts | 58° |
| 2026-05-05 17:28 | 39.54757 | 2.73641 | 29 ft | 0 kts | 58° |